Terminal Aerodrome Forecast
Issued by NWS

Home | Current Version | Previous Version | Text Only | Print | Product List | Glossary On
Versions: 1 2 3 4 5 6 7 8 9 10 11 12 13 14 15 16 17 18 19 20 21 22 23
866
FTUS43 KLSX 271140
TAFUIN
TAF
KUIN 271140Z 2712/2812 07004KT 2SM BR SCT250
      TEMPO 2712/2713 1/4SM FG VV002
     FM271400 07006KT 3SM BR SCT250
     FM271500 08007KT P6SM SCT250
     FM272200 11009KT P6SM VCTS BKN040CB
      TEMPO 2800/2802 2SM TSRA OVC035CB
     FM280300 13007KT P6SM BKN070=

USA.gov is the U.S. government's official web portal to all federal, state and local government web resources and services.